TR-0013 weather

CLOSED Konya West Airport
Meram, Konya Province, Turkey

Public forecast

Using degrees Celsius for public forecast. Weather courtesy of forecast.io.

METAR (pilot weather report)

Closest report is Konya Airport, 8.7 nm (16.2 km) NE. Retrieved 2019/06/17 16:50 UTC (1 hour ago):

LTAN 171650Z 31005KT 280V340 9999 SCT035 24/13 Q1011 NOSIG RMK RWY19 34007KT

TAF (pilot weather forecast)

Forecast is more than 12 hours old.

Closest forecast is Konya Airport, 8.7 nm (16.2 km) NE. Retrieved 2010/09/30 10:40 UTC (9 years ago):

TAF LTAN 301040Z 3012/0112 24012KT 9999 SCT035 BKN090 TEMPO 3012/3016 -SHRA BKN035